createdAt,value
2022-10-12T00:01:17.040Z,13.70
2022-10-12T00:03:45.276Z,14.00
2022-10-12T00:06:15.592Z,14.90
2022-10-12T00:08:45.626Z,14.80
2022-10-12T00:11:23.529Z,16.30
2022-10-12T00:13:52.519Z,16.00
2022-10-12T00:16:22.615Z,15.50
2022-10-12T00:18:56.253Z,17.30
2022-10-12T00:21:25.955Z,16.30
2022-10-12T00:23:57.773Z,16.00
2022-10-12T00:26:27.191Z,16.10
2022-10-12T00:28:58.950Z,15.40
2022-10-12T00:31:28.579Z,15.60
2022-10-12T00:34:01.567Z,14.70
2022-10-12T00:36:36.117Z,13.90
2022-10-12T00:39:07.053Z,13.70
2022-10-12T00:41:39.735Z,14.50
2022-10-12T00:44:46.786Z,14.20
2022-10-12T00:47:35.780Z,14.60
2022-10-12T00:50:07.603Z,12.20
2022-10-12T00:52:43.338Z,13.70
2022-10-12T00:55:17.368Z,13.50
2022-10-12T00:57:48.619Z,14.40
2022-10-12T01:00:19.256Z,13.90
2022-10-12T01:02:50.327Z,15.70
2022-10-12T01:05:20.124Z,16.20
2022-10-12T01:07:48.396Z,14.70
2022-10-12T01:10:17.724Z,18.50
2022-10-12T01:12:49.842Z,16.80
2022-10-12T01:15:18.508Z,16.80
2022-10-12T01:18:18.015Z,17.20
2022-10-12T01:21:07.801Z,17.00
2022-10-12T01:23:53.998Z,15.70
2022-10-12T01:26:49.901Z,16.90
2022-10-12T01:29:44.835Z,17.30
2022-10-12T01:32:33.390Z,16.50
2022-10-12T01:35:24.045Z,15.90
2022-10-12T01:38:07.541Z,15.10
2022-10-12T01:40:57.053Z,15.30
2022-10-12T01:43:35.391Z,15.60
2022-10-12T01:46:12.847Z,15.10
2022-10-12T01:48:43.217Z,15.90
2022-10-12T01:51:17.199Z,14.10
2022-10-12T01:53:56.134Z,13.90
2022-10-12T01:56:57.383Z,13.30
2022-10-12T01:59:54.823Z,13.30
2022-10-12T02:02:49.122Z,13.70
2022-10-12T02:05:44.728Z,12.90
2022-10-12T02:08:45.617Z,12.20
2022-10-12T02:11:17.594Z,11.80
2022-10-12T02:13:55.347Z,11.80
2022-10-12T02:16:28.974Z,11.30
2022-10-12T02:19:01.024Z,11.70
2022-10-12T02:21:35.424Z,12.60
2022-10-12T02:24:08.334Z,12.60
2022-10-12T02:26:41.525Z,12.40
2022-10-12T02:29:16.349Z,11.50
2022-10-12T02:32:02.650Z,10.60
2022-10-12T02:34:58.742Z,11.20
2022-10-12T02:37:54.088Z,11.60
2022-10-12T02:40:36.899Z,11.20
2022-10-12T02:43:40.687Z,10.50
2022-10-12T02:46:11.553Z,11.60
2022-10-12T02:48:42.119Z,11.30
2022-10-12T02:51:12.265Z,12.40
2022-10-12T02:53:40.691Z,11.20
2022-10-12T02:56:14.981Z,12.60
2022-10-12T02:58:44.890Z,11.60
2022-10-12T03:01:14.299Z,11.40
2022-10-12T03:03:43.186Z,11.20
2022-10-12T03:06:12.009Z,11.20
2022-10-12T03:08:40.450Z,10.40
2022-10-12T03:11:12.742Z,12.00
2022-10-12T03:13:41.040Z,11.40
2022-10-12T03:16:11.438Z,12.20
2022-10-12T03:18:40.253Z,10.60
2022-10-12T03:21:08.686Z,12.00
2022-10-12T03:23:37.585Z,11.90
2022-10-12T03:26:06.274Z,11.80
2022-10-12T03:28:34.646Z,11.60
2022-10-12T03:31:03.645Z,11.90
2022-10-12T03:33:31.889Z,12.00
2022-10-12T03:36:01.303Z,12.40
2022-10-12T03:38:29.538Z,11.90
2022-10-12T03:40:58.631Z,11.60
2022-10-12T03:43:29.224Z,12.50
2022-10-12T03:45:57.373Z,13.00
2022-10-12T03:48:25.563Z,12.70
2022-10-12T03:50:53.770Z,12.80
2022-10-12T03:53:21.881Z,11.70
2022-10-12T03:55:50.066Z,12.60
2022-10-12T03:58:19.091Z,13.30
2022-10-12T04:00:47.349Z,12.90
2022-10-12T04:03:15.513Z,13.60
2022-10-12T04:05:43.682Z,13.30
2022-10-12T04:08:12.088Z,12.90
2022-10-12T04:10:40.253Z,15.00
2022-10-12T04:13:08.487Z,13.80
2022-10-12T04:15:40.817Z,14.60
2022-10-12T04:18:09.010Z,13.50
2022-10-12T04:20:37.423Z,14.30
2022-10-12T04:23:05.656Z,16.50
2022-10-12T04:25:33.862Z,16.60
2022-10-12T04:28:01.994Z,15.30
2022-10-12T04:30:30.188Z,18.20
2022-10-12T04:32:58.465Z,16.30
2022-10-12T04:35:26.739Z,15.90
2022-10-12T04:37:55.023Z,16.00
2022-10-12T04:40:23.761Z,16.00
2022-10-12T04:42:52.587Z,16.00
2022-10-12T04:45:20.758Z,17.30
2022-10-12T04:47:49.036Z,17.90
2022-10-12T04:50:17.261Z,20.60
2022-10-12T04:52:45.537Z,20.20
2022-10-12T04:55:13.837Z,19.10
2022-10-12T04:57:41.941Z,20.10
2022-10-12T05:00:10.682Z,19.00
2022-10-12T05:02:38.948Z,19.40
2022-10-12T05:05:07.446Z,19.70
2022-10-12T05:07:35.795Z,19.00
2022-10-12T05:10:04.699Z,18.60
2022-10-12T05:12:32.823Z,19.30
2022-10-12T05:15:00.932Z,19.50
2022-10-12T05:17:29.672Z,19.70
2022-10-12T05:19:57.927Z,21.20
2022-10-12T05:22:26.097Z,20.20
2022-10-12T05:24:54.396Z,20.80
2022-10-12T05:27:23.041Z,20.00
2022-10-12T05:29:51.264Z,19.40
2022-10-12T05:32:19.594Z,19.60
2022-10-12T05:34:47.867Z,16.60
2022-10-12T05:37:16.139Z,16.60
2022-10-12T05:39:44.577Z,15.70
2022-10-12T05:42:12.778Z,17.30
2022-10-12T05:44:40.886Z,16.80
2022-10-12T05:47:10.066Z,21.00
2022-10-12T05:49:38.282Z,23.80
2022-10-12T05:52:06.557Z,25.30
2022-10-12T05:54:34.770Z,25.10
2022-10-12T05:57:03.454Z,27.50
2022-10-12T05:59:31.749Z,18.60
2022-10-12T06:02:00.074Z,19.30
2022-10-12T06:04:28.418Z,18.50
2022-10-12T06:06:56.599Z,17.90
2022-10-12T06:09:24.875Z,22.70
2022-10-12T06:11:53.017Z,21.90
2022-10-12T06:14:21.176Z,20.60
2022-10-12T06:16:53.747Z,18.40
2022-10-12T06:19:23.002Z,19.50
2022-10-12T06:21:51.249Z,26.70
2022-10-12T06:24:19.436Z,27.90
2022-10-12T06:26:47.720Z,53.30
2022-10-12T06:29:15.925Z,49.30
2022-10-12T06:31:48.997Z,46.50
2022-10-12T06:34:19.890Z,44.50
2022-10-12T06:36:49.793Z,36.00
2022-10-12T06:39:18.098Z,31.10
2022-10-12T06:41:46.965Z,27.30
2022-10-12T06:44:15.165Z,24.60
2022-10-12T06:46:43.309Z,21.50
2022-10-12T06:49:11.749Z,21.50
2022-10-12T06:51:39.974Z,18.30
2022-10-12T06:54:08.113Z,19.20
2022-10-12T06:56:38.376Z,20.80
2022-10-12T06:59:06.542Z,28.60
2022-10-12T07:01:34.760Z,25.40
2022-10-12T07:04:03.005Z,20.30
2022-10-12T07:06:33.101Z,19.20
2022-10-12T07:09:02.304Z,19.60
2022-10-12T07:11:30.584Z,20.90
2022-10-12T07:13:58.920Z,20.80
2022-10-12T07:16:27.115Z,20.60
2022-10-12T07:18:55.302Z,20.10
2022-10-12T07:21:23.579Z,19.20
2022-10-12T07:23:53.094Z,21.60
2022-10-12T07:26:21.298Z,20.80
2022-10-12T07:28:49.567Z,21.10
2022-10-12T07:31:17.781Z,21.80
2022-10-12T07:33:46.069Z,20.10
2022-10-12T07:36:17.093Z,20.40
2022-10-12T07:38:49.905Z,20.10
2022-10-12T07:41:18.843Z,21.60
2022-10-12T07:43:47.227Z,19.60
2022-10-12T07:46:15.567Z,20.80
2022-10-12T07:48:49.784Z,20.20
2022-10-12T07:51:19.462Z,19.20
2022-10-12T07:53:50.934Z,19.90
2022-10-12T07:56:19.169Z,20.90
2022-10-12T07:58:52.926Z,21.60
2022-10-12T08:01:23.704Z,22.50
2022-10-12T08:03:55.379Z,19.60
2022-10-12T08:06:30.451Z,22.00
2022-10-12T08:09:00.366Z,23.60
2022-10-12T08:11:29.446Z,22.50
2022-10-12T08:13:57.653Z,22.10
2022-10-12T08:16:25.812Z,22.70
2022-10-12T08:18:54.045Z,20.60
2022-10-12T08:21:22.331Z,23.20
2022-10-12T08:23:52.723Z,21.10
2022-10-12T08:26:21.038Z,23.10
2022-10-12T08:28:49.327Z,22.70
2022-10-12T08:31:18.105Z,24.10
2022-10-12T08:33:46.553Z,24.70
2022-10-12T08:36:14.849Z,25.50
2022-10-12T08:38:48.860Z,27.80
2022-10-12T08:41:23.512Z,24.70
2022-10-12T08:44:16.086Z,24.90
2022-10-12T08:46:44.613Z,25.50
2022-10-12T08:49:23.899Z,25.90
2022-10-12T08:51:59.373Z,23.90
2022-10-12T08:54:39.368Z,26.30
2022-10-12T08:57:17.654Z,24.10
2022-10-12T08:59:47.327Z,23.60
2022-10-12T09:02:37.562Z,25.10
2022-10-12T09:05:10.303Z,23.30
2022-10-12T09:08:12.767Z,25.20
2022-10-12T09:11:05.765Z,24.60
2022-10-12T09:14:03.266Z,26.00
2022-10-12T09:16:35.194Z,24.30
2022-10-12T09:19:13.284Z,24.80
2022-10-12T09:21:42.815Z,25.30
2022-10-12T09:24:19.113Z,24.70
2022-10-12T09:26:52.291Z,24.00
2022-10-12T09:29:35.874Z,23.50
2022-10-12T09:33:00.993Z,23.90
2022-10-12T09:35:29.304Z,22.60
2022-10-12T09:37:57.611Z,22.10
2022-10-12T09:40:31.262Z,20.40
2022-10-12T09:43:02.190Z,21.70
2022-10-12T09:45:34.313Z,20.60
2022-10-12T09:48:08.365Z,22.50
2022-10-12T09:50:55.503Z,21.10
2022-10-12T09:53:34.239Z,21.50
2022-10-12T09:56:11.833Z,20.10
2022-10-12T09:59:01.085Z,20.60
2022-10-12T10:01:32.442Z,20.90
2022-10-12T10:04:30.501Z,20.80
2022-10-12T10:07:19.347Z,21.20
2022-10-12T10:10:03.120Z,19.70
2022-10-12T10:12:31.867Z,18.50
2022-10-12T10:15:01.221Z,18.60
2022-10-12T10:17:32.782Z,18.90
2022-10-12T10:20:05.783Z,17.10
2022-10-12T10:22:34.030Z,16.20
2022-10-12T10:25:02.965Z,16.90
2022-10-12T10:27:37.488Z,15.50
2022-10-12T10:33:19.778Z,12.10
2022-10-12T10:36:20.513Z,13.00
2022-10-12T10:39:02.265Z,12.60
2022-10-12T10:41:39.038Z,12.20
2022-10-12T10:44:25.440Z,12.70
2022-10-12T10:46:56.516Z,10.40
2022-10-12T10:50:08.362Z,10.50
2022-10-12T10:52:37.551Z,8.70
2022-10-12T10:55:11.867Z,8.20
2022-10-12T10:57:45.607Z,7.00
2022-10-12T11:00:37.996Z,7.70
2022-10-12T11:03:23.212Z,6.80
2022-10-12T11:05:58.267Z,6.70
2022-10-12T11:08:30.843Z,5.50
2022-10-12T11:11:04.219Z,4.70
2022-10-12T11:13:44.972Z,5.00
2022-10-12T11:16:37.896Z,6.80
2022-10-12T11:19:15.535Z,5.80
2022-10-12T11:21:51.003Z,6.10
2022-10-12T11:24:28.719Z,6.60
2022-10-12T11:27:03.209Z,5.70
2022-10-12T11:29:31.725Z,4.40
2022-10-12T11:32:16.205Z,5.60
2022-10-12T11:34:55.198Z,5.40
2022-10-12T11:37:46.056Z,5.40
2022-10-12T11:40:41.547Z,5.60
2022-10-12T11:43:21.559Z,5.50
2022-10-12T11:45:54.706Z,5.60
2022-10-12T11:48:29.242Z,5.70
2022-10-12T11:53:43.515Z,4.90
2022-10-12T11:56:20.959Z,5.30
2022-10-12T11:59:02.267Z,4.20
2022-10-12T12:01:49.362Z,4.00
2022-10-12T12:04:41.585Z,4.70
2022-10-12T12:07:23.035Z,4.40
2022-10-12T12:09:54.563Z,4.30
2022-10-12T12:12:26.003Z,3.90
2022-10-12T12:14:54.246Z,4.20
2022-10-12T12:17:22.395Z,4.10
2022-10-12T12:20:02.540Z,3.80
2022-10-12T12:22:52.436Z,4.00
2022-10-12T12:25:31.717Z,4.20
2022-10-12T12:28:17.149Z,4.00
2022-10-12T12:30:59.792Z,4.20
2022-10-12T12:33:30.348Z,4.90
2022-10-12T12:36:05.308Z,4.90
2022-10-12T12:38:47.572Z,4.50
2022-10-12T12:41:21.507Z,4.30
2022-10-12T12:43:58.944Z,4.20
2022-10-12T12:46:56.083Z,4.10
2022-10-12T12:49:44.846Z,8.00
2022-10-12T12:52:28.337Z,8.60
2022-10-12T12:55:18.295Z,4.80
2022-10-12T12:58:02.894Z,3.70
2022-10-12T13:00:58.959Z,3.10
2022-10-12T13:03:45.437Z,4.20
2022-10-12T13:06:37.983Z,3.10
2022-10-12T13:09:25.286Z,3.60
2022-10-12T13:12:38.413Z,3.10
2022-10-12T13:15:41.693Z,3.80
2022-10-12T13:18:45.178Z,3.60
2022-10-12T13:21:15.926Z,3.80
2022-10-12T13:23:48.621Z,3.60
2022-10-12T13:26:23.990Z,3.50
2022-10-12T13:28:54.232Z,3.20
2022-10-12T13:31:34.938Z,3.30
2022-10-12T13:34:16.560Z,3.70
2022-10-12T13:37:01.761Z,3.00
2022-10-12T13:39:38.726Z,2.70
2022-10-12T13:42:07.882Z,3.70
2022-10-12T13:44:36.719Z,4.20
2022-10-12T13:47:23.529Z,4.20
2022-10-12T13:49:52.779Z,5.40
2022-10-12T13:52:29.650Z,5.40
2022-10-12T13:55:01.524Z,5.20
2022-10-12T13:57:31.979Z,5.70
2022-10-12T14:00:08.503Z,5.70
2022-10-12T14:02:36.759Z,6.40
2022-10-12T14:05:19.719Z,7.90
2022-10-12T14:07:51.670Z,6.50
2022-10-12T14:10:36.646Z,6.40
2022-10-12T14:13:06.372Z,8.10
2022-10-12T14:15:38.528Z,7.90
2022-10-12T14:18:33.413Z,8.30
2022-10-12T14:21:20.374Z,8.00
2022-10-12T14:23:51.974Z,7.70
2022-10-12T14:26:37.027Z,7.40
2022-10-12T14:29:30.654Z,8.00
2022-10-12T14:32:04.999Z,8.20
2022-10-12T14:34:42.526Z,7.80
2022-10-12T14:37:13.614Z,8.40
2022-10-12T14:39:43.893Z,8.00
2022-10-12T14:42:30.821Z,7.50
2022-10-12T14:45:00.565Z,6.60
2022-10-12T14:47:38.459Z,7.40
2022-10-12T14:50:09.867Z,7.00
2022-10-12T14:53:03.728Z,8.20
2022-10-12T14:55:34.319Z,8.20
2022-10-12T14:58:08.352Z,7.90
2022-10-12T15:00:38.754Z,7.50
2022-10-12T15:03:07.105Z,6.20
2022-10-12T15:05:35.375Z,6.50
2022-10-12T15:08:09.394Z,7.10
2022-10-12T15:10:37.858Z,6.80
2022-10-12T15:13:06.090Z,5.80
2022-10-12T15:15:43.008Z,6.30
2022-10-12T15:18:11.630Z,5.90
2022-10-12T15:20:43.245Z,6.40
2022-10-12T15:23:15.714Z,5.30
2022-10-12T15:25:52.642Z,5.70
2022-10-12T15:28:22.672Z,6.50
2022-10-12T15:31:16.399Z,6.00
2022-10-12T15:33:41.281Z,6.60
2022-10-12T15:36:10.529Z,9.50
2022-10-12T15:38:39.403Z,11.30
2022-10-12T15:41:17.404Z,12.20
2022-10-12T15:43:45.629Z,12.20
2022-10-12T15:46:13.824Z,12.70
2022-10-12T15:48:44.152Z,12.10
2022-10-12T15:51:24.587Z,10.50
2022-10-12T15:53:54.217Z,11.00
2022-10-12T15:56:23.211Z,28.40
2022-10-12T15:58:52.632Z,54.90
2022-10-12T16:01:21.516Z,60.90
2022-10-12T16:03:50.634Z,47.00
2022-10-12T16:06:19.426Z,38.10
2022-10-12T16:08:47.687Z,28.90
2022-10-12T16:11:17.676Z,16.60
2022-10-12T16:13:53.864Z,14.70
2022-10-12T16:16:25.254Z,11.70
2022-10-12T16:18:54.327Z,12.60
2022-10-12T16:21:22.581Z,11.80
2022-10-12T16:23:50.751Z,12.70
2022-10-12T16:26:18.986Z,11.80
2022-10-12T16:28:47.236Z,13.80
2022-10-12T16:31:18.104Z,12.70
2022-10-12T16:33:46.571Z,21.60
2022-10-12T16:36:17.125Z,19.60
2022-10-12T16:38:45.885Z,20.50
2022-10-12T16:41:17.105Z,19.90
2022-10-12T16:43:45.316Z,18.20
2022-10-12T16:46:13.514Z,17.60
2022-10-12T16:48:41.711Z,21.20
2022-10-12T16:51:11.595Z,27.20
2022-10-12T16:53:42.489Z,30.10
2022-10-12T16:56:10.888Z,51.30
2022-10-12T16:58:39.309Z,51.30
2022-10-12T17:01:12.337Z,40.40
2022-10-12T17:03:40.772Z,39.80
2022-10-12T17:06:10.035Z,33.50
2022-10-12T17:08:39.600Z,29.90
2022-10-12T17:11:10.946Z,26.60
2022-10-12T17:13:44.055Z,28.90
2022-10-12T17:16:34.099Z,30.50
2022-10-12T17:19:03.670Z,28.60
2022-10-12T17:21:32.079Z,29.00
2022-10-12T17:24:01.935Z,27.00
2022-10-12T17:26:30.241Z,28.40
2022-10-12T17:28:58.517Z,31.40
2022-10-12T17:31:26.774Z,25.40
2022-10-12T17:33:55.128Z,25.80
2022-10-12T17:36:27.870Z,25.10
2022-10-12T17:38:58.738Z,24.00
2022-10-12T17:41:28.725Z,21.50
2022-10-12T17:43:57.995Z,20.80
2022-10-12T17:46:26.627Z,20.80
2022-10-12T17:48:56.256Z,21.20
2022-10-12T17:51:24.465Z,20.30
2022-10-12T17:53:52.675Z,22.20
2022-10-12T17:56:21.004Z,23.00
2022-10-12T17:58:57.486Z,24.20
2022-10-12T18:01:27.339Z,22.80
2022-10-12T18:03:56.521Z,22.50
2022-10-12T18:06:25.198Z,25.00
2022-10-12T18:08:53.509Z,25.80
2022-10-12T18:11:22.431Z,27.60
2022-10-12T18:13:53.713Z,27.40
2022-10-12T18:16:27.574Z,34.60
2022-10-12T18:18:58.127Z,43.80
2022-10-12T18:21:27.806Z,33.70
2022-10-12T18:23:56.097Z,28.60
2022-10-12T18:26:26.744Z,30.30
2022-10-12T18:28:55.925Z,34.50
2022-10-12T18:31:26.567Z,37.60
2022-10-12T18:33:56.732Z,36.40
2022-10-12T18:36:26.666Z,27.60
2022-10-12T18:38:54.994Z,26.80
2022-10-12T18:41:26.005Z,24.50
2022-10-12T18:43:58.823Z,24.00
2022-10-12T18:46:29.656Z,23.90
2022-10-12T18:48:58.534Z,24.90
2022-10-12T18:51:29.886Z,26.60
2022-10-12T18:53:59.016Z,25.30
2022-10-12T18:56:29.441Z,25.30
2022-10-12T18:59:00.137Z,22.60
2022-10-12T19:01:30.583Z,22.90
2022-10-12T19:04:00.920Z,21.90
2022-10-12T19:06:32.849Z,22.40
2022-10-12T19:09:01.979Z,21.70
2022-10-12T19:11:31.330Z,21.80
2022-10-12T19:14:06.049Z,19.40
2022-10-12T19:16:35.816Z,22.70
2022-10-12T19:19:18.230Z,21.70
2022-10-12T19:21:51.389Z,22.90
2022-10-12T19:24:21.277Z,28.80
2022-10-12T19:26:49.682Z,31.00
2022-10-12T19:29:17.996Z,35.40
2022-10-12T19:31:48.368Z,42.00
2022-10-12T19:34:20.268Z,40.70
2022-10-12T19:36:50.288Z,40.80
2022-10-12T19:39:22.042Z,50.20
2022-10-12T19:41:51.508Z,46.50
2022-10-12T19:44:20.550Z,48.10
2022-10-12T19:46:49.608Z,43.40
2022-10-12T19:49:19.594Z,35.80
2022-10-12T19:51:47.920Z,32.00
2022-10-12T19:54:16.741Z,29.90
2022-10-12T19:56:45.731Z,30.50
2022-10-12T19:59:13.973Z,26.60
2022-10-12T20:01:48.011Z,30.70
2022-10-12T20:04:17.030Z,30.30
2022-10-12T20:06:45.235Z,23.90
2022-10-12T20:09:13.623Z,21.60
2022-10-12T20:11:42.133Z,33.60
2022-10-12T20:14:11.120Z,32.60
2022-10-12T20:16:39.386Z,28.90
2022-10-12T20:19:08.282Z,26.40
2022-10-12T20:21:36.801Z,24.10
2022-10-12T20:24:10.135Z,24.50
2022-10-12T20:26:38.966Z,25.80
2022-10-12T20:29:07.220Z,33.50
2022-10-12T20:31:35.887Z,47.30
2022-10-12T20:34:04.321Z,40.80
2022-10-12T20:36:32.570Z,44.60
2022-10-12T20:39:00.788Z,95.60
2022-10-12T20:41:30.888Z,68.60
2022-10-12T20:44:00.841Z,35.00
2022-10-12T20:46:29.962Z,26.50
2022-10-12T20:49:01.408Z,26.00
2022-10-12T20:51:36.227Z,31.10
2022-10-12T20:54:06.105Z,32.60
2022-10-12T20:56:34.923Z,33.10
2022-10-12T20:59:03.185Z,39.30
2022-10-12T21:01:31.382Z,38.70
2022-10-12T21:03:59.679Z,41.80
2022-10-12T21:06:28.808Z,42.50
2022-10-12T21:08:58.070Z,31.40
2022-10-12T21:11:28.496Z,27.20
2022-10-12T21:13:56.760Z,29.50
2022-10-12T21:16:26.917Z,35.30
2022-10-12T21:18:55.976Z,31.60
2022-10-12T21:21:24.768Z,30.30
2022-10-12T21:23:56.053Z,27.80
2022-10-12T21:26:29.577Z,24.90
2022-10-12T21:29:00.957Z,29.80
2022-10-12T21:31:32.594Z,32.50
2022-10-12T21:34:03.751Z,36.50
2022-10-12T21:36:35.557Z,35.30
2022-10-12T21:39:09.713Z,34.70
2022-10-12T21:41:38.588Z,29.80
2022-10-12T21:44:07.684Z,31.20
2022-10-12T21:46:36.415Z,28.70
2022-10-12T21:49:08.217Z,29.40
2022-10-12T21:51:38.027Z,34.30
2022-10-12T21:54:07.126Z,48.60
2022-10-12T21:56:36.990Z,42.10
2022-10-12T21:59:06.665Z,32.70
2022-10-12T22:01:38.375Z,30.10
2022-10-12T22:04:11.764Z,29.90
2022-10-12T22:06:41.063Z,28.00
2022-10-12T22:09:15.435Z,29.30
2022-10-12T22:11:44.143Z,28.30
2022-10-12T22:14:16.231Z,28.30
2022-10-12T22:16:45.048Z,28.50
2022-10-12T22:19:15.678Z,26.90
2022-10-12T22:21:43.895Z,22.50
2022-10-12T22:24:12.364Z,17.60
2022-10-12T22:26:40.700Z,16.90
2022-10-12T22:29:10.621Z,17.60
2022-10-12T22:31:41.295Z,16.60
2022-10-12T22:34:11.462Z,17.70
2022-10-12T22:36:39.683Z,17.00
2022-10-12T22:39:07.961Z,16.90
2022-10-12T22:41:36.198Z,16.10
2022-10-12T22:44:04.573Z,18.80
2022-10-12T22:46:32.768Z,17.60
2022-10-12T22:49:02.981Z,18.40
2022-10-12T22:51:39.225Z,20.00
2022-10-12T22:54:08.865Z,20.40
2022-10-12T22:56:39.771Z,19.90
2022-10-12T22:59:12.063Z,21.60
2022-10-12T23:01:40.343Z,21.80
2022-10-12T23:04:09.072Z,20.60
2022-10-12T23:06:37.282Z,17.50
2022-10-12T23:09:05.617Z,21.70
2022-10-12T23:11:33.872Z,20.70
2022-10-12T23:14:02.051Z,19.60
2022-10-12T23:16:34.089Z,20.20
2022-10-12T23:19:05.887Z,19.40
2022-10-12T23:21:34.920Z,19.10
2022-10-12T23:24:05.339Z,20.40
2022-10-12T23:26:34.474Z,19.30
2022-10-12T23:29:03.991Z,19.50
2022-10-12T23:31:32.739Z,18.50
2022-10-12T23:34:05.035Z,19.30
2022-10-12T23:36:35.381Z,17.00
2022-10-12T23:39:05.394Z,18.40
2022-10-12T23:41:33.679Z,18.50
2022-10-12T23:44:01.906Z,19.30
2022-10-12T23:46:30.899Z,19.30
2022-10-12T23:49:00.247Z,19.70
2022-10-12T23:51:28.570Z,19.10
2022-10-12T23:53:56.875Z,17.40
2022-10-12T23:56:25.372Z,18.80
2022-10-12T23:58:53.948Z,19.40
